sensor_id;sensor_type;location;lat;lon;timestamp;P1;durP1;ratioP1;P2;durP2;ratioP2
6374;SDS011;35400;45.472;-122.822;2023-05-03T00:00:56;8.88;;;5.10;;
6374;SDS011;35400;45.472;-122.822;2023-05-03T00:03:26;6.45;;;4.22;;
6374;SDS011;35400;45.472;-122.822;2023-05-03T00:05:53;10.05;;;4.78;;
6374;SDS011;35400;45.472;-122.822;2023-05-03T00:08:20;9.45;;;5.40;;
6374;SDS011;35400;45.472;-122.822;2023-05-03T00:10:47;5.30;;;4.18;;
6374;SDS011;35400;45.472;-122.822;2023-05-03T00:13:14;9.63;;;4.65;;
6374;SDS011;35400;45.472;-122.822;2023-05-03T00:15:40;9.60;;;5.35;;
6374;SDS011;35400;45.472;-122.822;2023-05-03T00:18:07;6.22;;;4.10;;
6374;SDS011;35400;45.472;-122.822;2023-05-03T00:20:34;9.57;;;4.45;;
6374;SDS011;35400;45.472;-122.822;2023-05-03T00:23:02;7.05;;;4.13;;
6374;SDS011;35400;45.472;-122.822;2023-05-03T00:25:29;7.95;;;4.65;;
6374;SDS011;35400;45.472;-122.822;2023-05-03T00:27:55;8.02;;;4.30;;
6374;SDS011;35400;45.472;-122.822;2023-05-03T00:30:23;9.07;;;4.57;;
6374;SDS011;35400;45.472;-122.822;2023-05-03T00:32:50;6.35;;;3.88;;
6374;SDS011;35400;45.472;-122.822;2023-05-03T00:35:17;6.75;;;4.10;;
6374;SDS011;35400;45.472;-122.822;2023-05-03T00:37:44;8.65;;;4.88;;
6374;SDS011;35400;45.472;-122.822;2023-05-03T00:40:11;6.97;;;4.00;;
6374;SDS011;35400;45.472;-122.822;2023-05-03T00:42:40;5.82;;;4.60;;
6374;SDS011;35400;45.472;-122.822;2023-05-03T00:45:06;7.15;;;4.40;;
6374;SDS011;35400;45.472;-122.822;2023-05-03T00:47:35;10.77;;;4.57;;
6374;SDS011;35400;45.472;-122.822;2023-05-03T00:50:02;8.48;;;4.85;;
6374;SDS011;35400;45.472;-122.822;2023-05-03T00:52:30;7.70;;;4.40;;
6374;SDS011;35400;45.472;-122.822;2023-05-03T00:54:57;9.07;;;4.88;;
6374;SDS011;35400;45.472;-122.822;2023-05-03T00:57:25;8.38;;;4.80;;
6374;SDS011;35400;45.472;-122.822;2023-05-03T00:59:53;10.02;;;6.00;;
6374;SDS011;35400;45.472;-122.822;2023-05-03T01:02:22;7.30;;;5.32;;
6374;SDS011;35400;45.472;-122.822;2023-05-03T01:04:50;8.02;;;5.75;;
6374;SDS011;35400;45.472;-122.822;2023-05-03T01:07:34;7.82;;;5.57;;
6374;SDS011;35400;45.472;-122.822;2023-05-03T01:10:33;7.28;;;5.93;;
6374;SDS011;35400;45.472;-122.822;2023-05-03T01:18:57;6.90;;;5.93;;
6374;SDS011;35400;45.472;-122.822;2023-05-03T01:21:29;8.98;;;5.82;;
6374;SDS011;35400;45.472;-122.822;2023-05-03T01:24:11;7.53;;;5.90;;
6374;SDS011;35400;45.472;-122.822;2023-05-03T01:26:43;9.27;;;6.63;;
6374;SDS011;35400;45.472;-122.822;2023-05-03T01:29:09;9.30;;;6.10;;
6374;SDS011;35400;45.472;-122.822;2023-05-03T01:32:11;8.93;;;6.43;;
6374;SDS011;35400;45.472;-122.822;2023-05-03T01:34:34;9.47;;;5.90;;
6374;SDS011;35400;45.472;-122.822;2023-05-03T01:37:11;10.13;;;6.13;;
6374;SDS011;35400;45.472;-122.822;2023-05-03T01:42:13;9.03;;;5.90;;
6374;SDS011;35400;45.472;-122.822;2023-05-03T01:44:40;9.50;;;5.87;;
6374;SDS011;35400;45.472;-122.822;2023-05-03T01:47:11;7.43;;;5.00;;
6374;SDS011;35400;45.472;-122.822;2023-05-03T01:49:39;10.13;;;5.40;;
6374;SDS011;35400;45.472;-122.822;2023-05-03T01:52:06;6.60;;;4.83;;
6374;SDS011;35400;45.472;-122.822;2023-05-03T01:54:35;9.57;;;5.73;;
6374;SDS011;35400;45.472;-122.822;2023-05-03T01:57:02;7.87;;;4.30;;
6374;SDS011;35400;45.472;-122.822;2023-05-03T01:59:30;6.50;;;4.40;;
6374;SDS011;35400;45.472;-122.822;2023-05-03T02:01:56;10.50;;;5.53;;
6374;SDS011;35400;45.472;-122.822;2023-05-03T02:04:23;7.83;;;4.53;;
6374;SDS011;35400;45.472;-122.822;2023-05-03T02:06:50;8.07;;;4.53;;
6374;SDS011;35400;45.472;-122.822;2023-05-03T02:09:17;7.23;;;4.33;;
6374;SDS011;35400;45.472;-122.822;2023-05-03T02:11:44;5.73;;;4.40;;
6374;SDS011;35400;45.472;-122.822;2023-05-03T02:14:11;8.40;;;4.33;;
6374;SDS011;35400;45.472;-122.822;2023-05-03T02:16:38;9.07;;;5.00;;
6374;SDS011;35400;45.472;-122.822;2023-05-03T02:19:05;7.63;;;4.27;;
6374;SDS011;35400;45.472;-122.822;2023-05-03T02:21:33;7.87;;;4.13;;
6374;SDS011;35400;45.472;-122.822;2023-05-03T02:24:01;8.00;;;4.43;;
6374;SDS011;35400;45.472;-122.822;2023-05-03T02:26:28;6.03;;;3.73;;
6374;SDS011;35400;45.472;-122.822;2023-05-03T02:28:55;6.60;;;4.20;;
6374;SDS011;35400;45.472;-122.822;2023-05-03T02:31:23;8.37;;;4.00;;
6374;SDS011;35400;45.472;-122.822;2023-05-03T02:33:51;9.53;;;4.40;;
6374;SDS011;35400;45.472;-122.822;2023-05-03T02:36:20;7.50;;;4.37;;
6374;SDS011;35400;45.472;-122.822;2023-05-03T02:38:48;15.07;;;4.43;;
6374;SDS011;35400;45.472;-122.822;2023-05-03T02:41:14;7.83;;;3.97;;
6374;SDS011;35400;45.472;-122.822;2023-05-03T02:43:42;6.27;;;3.73;;
6374;SDS011;35400;45.472;-122.822;2023-05-03T02:46:09;5.67;;;3.80;;
6374;SDS011;35400;45.472;-122.822;2023-05-03T02:48:36;8.13;;;3.93;;
6374;SDS011;35400;45.472;-122.822;2023-05-03T02:51:04;9.23;;;4.40;;
6374;SDS011;35400;45.472;-122.822;2023-05-03T02:53:31;7.03;;;4.23;;
6374;SDS011;35400;45.472;-122.822;2023-05-03T02:56:01;5.00;;;4.00;;
6374;SDS011;35400;45.472;-122.822;2023-05-03T02:58:28;5.93;;;4.20;;
6374;SDS011;35400;45.472;-122.822;2023-05-03T03:00:55;6.33;;;4.93;;
6374;SDS011;35400;45.472;-122.822;2023-05-03T03:03:26;8.77;;;4.70;;
6374;SDS011;35400;45.472;-122.822;2023-05-03T03:05:53;7.27;;;4.67;;
6374;SDS011;35400;45.472;-122.822;2023-05-03T03:08:20;7.90;;;4.67;;
6374;SDS011;35400;45.472;-122.822;2023-05-03T03:10:48;7.33;;;4.23;;
6374;SDS011;35400;45.472;-122.822;2023-05-03T03:13:15;8.37;;;4.43;;
6374;SDS011;35400;45.472;-122.822;2023-05-03T03:15:42;6.97;;;4.57;;
6374;SDS011;35400;45.472;-122.822;2023-05-03T03:18:09;7.53;;;4.20;;
6374;SDS011;35400;45.472;-122.822;2023-05-03T03:20:36;5.67;;;4.37;;
6374;SDS011;35400;45.472;-122.822;2023-05-03T03:23:03;4.03;;;3.50;;
6374;SDS011;35400;45.472;-122.822;2023-05-03T03:25:30;5.80;;;3.93;;
6374;SDS011;35400;45.472;-122.822;2023-05-03T03:27:57;6.30;;;4.37;;
6374;SDS011;35400;45.472;-122.822;2023-05-03T03:30:25;6.63;;;4.40;;
6374;SDS011;35400;45.472;-122.822;2023-05-03T03:33:02;8.87;;;4.10;;
6374;SDS011;35400;45.472;-122.822;2023-05-03T03:35:36;5.30;;;3.87;;
6374;SDS011;35400;45.472;-122.822;2023-05-03T03:38:04;8.63;;;4.63;;
6374;SDS011;35400;45.472;-122.822;2023-05-03T03:40:34;8.23;;;4.60;;
6374;SDS011;35400;45.472;-122.822;2023-05-03T03:43:01;7.83;;;4.90;;
6374;SDS011;35400;45.472;-122.822;2023-05-03T03:45:28;7.97;;;4.37;;
6374;SDS011;35400;45.472;-122.822;2023-05-03T03:47:55;5.00;;;4.50;;
6374;SDS011;35400;45.472;-122.822;2023-05-03T03:50:23;5.77;;;4.37;;
6374;SDS011;35400;45.472;-122.822;2023-05-03T03:52:51;6.20;;;4.47;;
6374;SDS011;35400;45.472;-122.822;2023-05-03T03:55:18;7.33;;;4.53;;
6374;SDS011;35400;45.472;-122.822;2023-05-03T03:57:47;6.83;;;4.60;;
6374;SDS011;35400;45.472;-122.822;2023-05-03T04:00:14;6.50;;;4.40;;
6374;SDS011;35400;45.472;-122.822;2023-05-03T04:02:47;5.60;;;3.40;;
6374;SDS011;35400;45.472;-122.822;2023-05-03T04:05:16;7.17;;;3.97;;
6374;SDS011;35400;45.472;-122.822;2023-05-03T04:07:44;5.20;;;3.97;;
6374;SDS011;35400;45.472;-122.822;2023-05-03T04:10:13;7.63;;;4.47;;
6374;SDS011;35400;45.472;-122.822;2023-05-03T04:12:40;7.40;;;4.20;;
6374;SDS011;35400;45.472;-122.822;2023-05-03T04:15:07;6.83;;;4.00;;
6374;SDS011;35400;45.472;-122.822;2023-05-03T04:17:37;3.97;;;3.57;;
6374;SDS011;35400;45.472;-122.822;2023-05-03T04:20:06;5.60;;;3.87;;
6374;SDS011;35400;45.472;-122.822;2023-05-03T04:22:38;5.57;;;3.93;;
6374;SDS011;35400;45.472;-122.822;2023-05-03T04:25:07;5.93;;;4.00;;
6374;SDS011;35400;45.472;-122.822;2023-05-03T04:27:36;7.50;;;4.80;;
6374;SDS011;35400;45.472;-122.822;2023-05-03T04:30:04;7.77;;;4.37;;
6374;SDS011;35400;45.472;-122.822;2023-05-03T04:32:32;7.07;;;4.17;;
6374;SDS011;35400;45.472;-122.822;2023-05-03T04:35:07;5.43;;;4.00;;
6374;SDS011;35400;45.472;-122.822;2023-05-03T04:37:38;7.80;;;4.30;;
6374;SDS011;35400;45.472;-122.822;2023-05-03T04:40:05;9.77;;;4.23;;
6374;SDS011;35400;45.472;-122.822;2023-05-03T04:42:41;6.47;;;4.27;;
6374;SDS011;35400;45.472;-122.822;2023-05-03T04:45:09;7.63;;;4.47;;
6374;SDS011;35400;45.472;-122.822;2023-05-03T04:47:36;7.37;;;4.40;;
6374;SDS011;35400;45.472;-122.822;2023-05-03T04:50:04;8.33;;;4.07;;
6374;SDS011;35400;45.472;-122.822;2023-05-03T04:52:33;5.00;;;4.07;;
6374;SDS011;35400;45.472;-122.822;2023-05-03T04:55:00;7.17;;;4.57;;
6374;SDS011;35400;45.472;-122.822;2023-05-03T04:57:28;4.77;;;3.80;;
6374;SDS011;35400;45.472;-122.822;2023-05-03T04:59:57;8.27;;;4.77;;
6374;SDS011;35400;45.472;-122.822;2023-05-03T05:02:24;6.60;;;4.27;;
6374;SDS011;35400;45.472;-122.822;2023-05-03T05:04:52;7.37;;;4.13;;
6374;SDS011;35400;45.472;-122.822;2023-05-03T05:07:19;8.53;;;4.80;;
6374;SDS011;35400;45.472;-122.822;2023-05-03T05:09:48;7.40;;;4.03;;
6374;SDS011;35400;45.472;-122.822;2023-05-03T05:12:15;5.40;;;4.20;;
6374;SDS011;35400;45.472;-122.822;2023-05-03T05:14:42;6.40;;;4.17;;
6374;SDS011;35400;45.472;-122.822;2023-05-03T05:17:10;8.07;;;3.83;;
6374;SDS011;35400;45.472;-122.822;2023-05-03T05:19:37;9.10;;;4.23;;
6374;SDS011;35400;45.472;-122.822;2023-05-03T05:22:04;7.50;;;4.50;;
6374;SDS011;35400;45.472;-122.822;2023-05-03T05:24:51;9.10;;;4.80;;
6374;SDS011;35400;45.472;-122.822;2023-05-03T05:27:19;5.00;;;4.27;;
6374;SDS011;35400;45.472;-122.822;2023-05-03T05:29:47;8.43;;;4.57;;
6374;SDS011;35400;45.472;-122.822;2023-05-03T05:32:14;6.07;;;4.67;;
6374;SDS011;35400;45.472;-122.822;2023-05-03T05:34:40;7.10;;;4.57;;
6374;SDS011;35400;45.472;-122.822;2023-05-03T05:37:10;6.63;;;4.23;;
6374;SDS011;35400;45.472;-122.822;2023-05-03T05:39:37;7.10;;;5.30;;
6374;SDS011;35400;45.472;-122.822;2023-05-03T05:42:04;9.63;;;5.40;;
6374;SDS011;35400;45.472;-122.822;2023-05-03T05:44:32;7.23;;;4.47;;
6374;SDS011;35400;45.472;-122.822;2023-05-03T05:46:59;8.27;;;4.90;;
6374;SDS011;35400;45.472;-122.822;2023-05-03T05:49:27;6.63;;;5.13;;
6374;SDS011;35400;45.472;-122.822;2023-05-03T05:51:54;4.97;;;4.33;;
6374;SDS011;35400;45.472;-122.822;2023-05-03T05:54:22;6.90;;;4.50;;
6374;SDS011;35400;45.472;-122.822;2023-05-03T05:56:49;6.80;;;4.40;;
6374;SDS011;35400;45.472;-122.822;2023-05-03T05:59:17;7.10;;;4.80;;
6374;SDS011;35400;45.472;-122.822;2023-05-03T06:01:45;5.70;;;4.47;;
6374;SDS011;35400;45.472;-122.822;2023-05-03T06:04:15;7.07;;;4.73;;
6374;SDS011;35400;45.472;-122.822;2023-05-03T06:06:42;5.67;;;4.40;;
6374;SDS011;35400;45.472;-122.822;2023-05-03T06:09:09;4.87;;;4.00;;
6374;SDS011;35400;45.472;-122.822;2023-05-03T06:11:36;6.70;;;4.70;;
6374;SDS011;35400;45.472;-122.822;2023-05-03T06:14:03;4.43;;;4.00;;
6374;SDS011;35400;45.472;-122.822;2023-05-03T06:16:36;5.90;;;4.40;;
6374;SDS011;35400;45.472;-122.822;2023-05-03T06:19:03;7.80;;;4.33;;
6374;SDS011;35400;45.472;-122.822;2023-05-03T06:21:31;5.10;;;4.43;;
6374;SDS011;35400;45.472;-122.822;2023-05-03T06:23:59;7.07;;;4.73;;
6374;SDS011;35400;45.472;-122.822;2023-05-03T06:26:27;8.73;;;4.97;;
6374;SDS011;35400;45.472;-122.822;2023-05-03T06:28:54;8.77;;;4.70;;
6374;SDS011;35400;45.472;-122.822;2023-05-03T06:31:21;7.57;;;4.70;;
6374;SDS011;35400;45.472;-122.822;2023-05-03T06:33:48;7.60;;;4.57;;
6374;SDS011;35400;45.472;-122.822;2023-05-03T06:36:15;7.70;;;4.93;;
6374;SDS011;35400;45.472;-122.822;2023-05-03T06:38:42;5.97;;;4.53;;
6374;SDS011;35400;45.472;-122.822;2023-05-03T06:41:09;7.17;;;4.77;;
6374;SDS011;35400;45.472;-122.822;2023-05-03T06:43:36;9.27;;;5.10;;
6374;SDS011;35400;45.472;-122.822;2023-05-03T06:46:04;6.90;;;5.20;;
6374;SDS011;35400;45.472;-122.822;2023-05-03T06:48:31;10.63;;;4.83;;
6374;SDS011;35400;45.472;-122.822;2023-05-03T06:50:58;5.53;;;4.83;;
6374;SDS011;35400;45.472;-122.822;2023-05-03T06:53:25;10.07;;;5.50;;
6374;SDS011;35400;45.472;-122.822;2023-05-03T06:55:53;7.43;;;5.33;;
6374;SDS011;35400;45.472;-122.822;2023-05-03T06:58:20;10.27;;;5.50;;
6374;SDS011;35400;45.472;-122.822;2023-05-03T07:00:50;7.53;;;5.17;;
6374;SDS011;35400;45.472;-122.822;2023-05-03T07:03:18;8.33;;;5.03;;
6374;SDS011;35400;45.472;-122.822;2023-05-03T07:05:45;5.70;;;4.80;;
6374;SDS011;35400;45.472;-122.822;2023-05-03T07:08:13;6.97;;;4.97;;
6374;SDS011;35400;45.472;-122.822;2023-05-03T07:10:39;7.37;;;5.40;;
6374;SDS011;35400;45.472;-122.822;2023-05-03T07:13:06;11.40;;;5.97;;
6374;SDS011;35400;45.472;-122.822;2023-05-03T07:15:33;8.13;;;5.27;;
6374;SDS011;35400;45.472;-122.822;2023-05-03T07:18:00;7.70;;;4.57;;
6374;SDS011;35400;45.472;-122.822;2023-05-03T07:20:28;6.57;;;4.77;;
6374;SDS011;35400;45.472;-122.822;2023-05-03T07:22:55;8.03;;;4.80;;
6374;SDS011;35400;45.472;-122.822;2023-05-03T07:25:22;4.77;;;4.23;;
6374;SDS011;35400;45.472;-122.822;2023-05-03T07:27:49;7.03;;;5.27;;
6374;SDS011;35400;45.472;-122.822;2023-05-03T07:30:17;6.30;;;4.97;;
6374;SDS011;35400;45.472;-122.822;2023-05-03T07:32:44;8.80;;;4.60;;
6374;SDS011;35400;45.472;-122.822;2023-05-03T07:35:11;7.77;;;4.80;;
6374;SDS011;35400;45.472;-122.822;2023-05-03T07:37:37;5.97;;;4.60;;
6374;SDS011;35400;45.472;-122.822;2023-05-03T07:40:05;10.93;;;5.07;;
6374;SDS011;35400;45.472;-122.822;2023-05-03T07:42:32;9.60;;;5.17;;
6374;SDS011;35400;45.472;-122.822;2023-05-03T07:44:59;8.93;;;5.40;;
6374;SDS011;35400;45.472;-122.822;2023-05-03T07:47:26;6.50;;;4.33;;
6374;SDS011;35400;45.472;-122.822;2023-05-03T07:49:54;5.80;;;4.17;;
6374;SDS011;35400;45.472;-122.822;2023-05-03T07:52:21;7.13;;;4.83;;
6374;SDS011;35400;45.472;-122.822;2023-05-03T07:54:48;7.50;;;5.00;;
6374;SDS011;35400;45.472;-122.822;2023-05-03T07:57:14;7.20;;;4.40;;
6374;SDS011;35400;45.472;-122.822;2023-05-03T07:59:42;7.23;;;5.10;;
6374;SDS011;35400;45.472;-122.822;2023-05-03T08:02:09;6.30;;;4.80;;
6374;SDS011;35400;45.472;-122.822;2023-05-03T08:04:35;8.73;;;5.20;;
6374;SDS011;35400;45.472;-122.822;2023-05-03T08:07:02;10.67;;;4.80;;
6374;SDS011;35400;45.472;-122.822;2023-05-03T08:09:29;5.73;;;4.90;;
6374;SDS011;35400;45.472;-122.822;2023-05-03T08:11:56;5.80;;;4.97;;
6374;SDS011;35400;45.472;-122.822;2023-05-03T08:14:23;6.83;;;4.77;;
6374;SDS011;35400;45.472;-122.822;2023-05-03T08:16:50;7.57;;;5.03;;
6374;SDS011;35400;45.472;-122.822;2023-05-03T08:19:17;7.40;;;4.87;;
6374;SDS011;35400;45.472;-122.822;2023-05-03T08:21:44;11.03;;;4.93;;
6374;SDS011;35400;45.472;-122.822;2023-05-03T08:24:11;7.63;;;4.40;;
6374;SDS011;35400;45.472;-122.822;2023-05-03T08:26:39;6.87;;;4.63;;
6374;SDS011;35400;45.472;-122.822;2023-05-03T08:29:06;6.87;;;4.50;;
6374;SDS011;35400;45.472;-122.822;2023-05-03T08:31:33;5.17;;;4.53;;
6374;SDS011;35400;45.472;-122.822;2023-05-03T08:34:00;7.13;;;3.87;;
6374;SDS011;35400;45.472;-122.822;2023-05-03T08:36:28;5.87;;;4.10;;
6374;SDS011;35400;45.472;-122.822;2023-05-03T08:38:56;6.83;;;3.63;;
6374;SDS011;35400;45.472;-122.822;2023-05-03T08:41:29;4.37;;;3.47;;
6374;SDS011;35400;45.472;-122.822;2023-05-03T08:43:58;7.17;;;3.60;;
6374;SDS011;35400;45.472;-122.822;2023-05-03T08:46:26;6.53;;;3.60;;
6374;SDS011;35400;45.472;-122.822;2023-05-03T08:48:54;7.27;;;3.30;;
6374;SDS011;35400;45.472;-122.822;2023-05-03T08:51:21;4.90;;;3.20;;
6374;SDS011;35400;45.472;-122.822;2023-05-03T08:53:49;5.80;;;2.83;;
6374;SDS011;35400;45.472;-122.822;2023-05-03T08:56:23;3.90;;;3.03;;
6374;SDS011;35400;45.472;-122.822;2023-05-03T08:58:51;4.27;;;2.80;;
6374;SDS011;35400;45.472;-122.822;2023-05-03T09:01:18;4.80;;;3.30;;
6374;SDS011;35400;45.472;-122.822;2023-05-03T09:03:48;4.37;;;3.27;;
6374;SDS011;35400;45.472;-122.822;2023-05-03T09:06:20;5.80;;;3.00;;
6374;SDS011;35400;45.472;-122.822;2023-05-03T09:08:52;6.93;;;3.23;;
6374;SDS011;35400;45.472;-122.822;2023-05-03T09:11:22;5.03;;;3.30;;
6374;SDS011;35400;45.472;-122.822;2023-05-03T09:13:51;3.50;;;3.20;;
6374;SDS011;35400;45.472;-122.822;2023-05-03T09:16:24;3.93;;;3.03;;
6374;SDS011;35400;45.472;-122.822;2023-05-03T09:18:56;4.60;;;3.30;;
6374;SDS011;35400;45.472;-122.822;2023-05-03T09:21:27;3.77;;;3.33;;
6374;SDS011;35400;45.472;-122.822;2023-05-03T09:23:56;4.43;;;3.17;;
6374;SDS011;35400;45.472;-122.822;2023-05-03T09:26:30;4.07;;;2.90;;
6374;SDS011;35400;45.472;-122.822;2023-05-03T09:29:02;3.97;;;3.17;;
6374;SDS011;35400;45.472;-122.822;2023-05-03T09:31:30;5.00;;;3.23;;
6374;SDS011;35400;45.472;-122.822;2023-05-03T09:33:59;5.70;;;2.83;;
6374;SDS011;35400;45.472;-122.822;2023-05-03T09:36:26;5.10;;;2.67;;
6374;SDS011;35400;45.472;-122.822;2023-05-03T09:38:53;4.40;;;2.83;;
6374;SDS011;35400;45.472;-122.822;2023-05-03T09:41:27;3.80;;;2.90;;
6374;SDS011;35400;45.472;-122.822;2023-05-03T09:43:56;4.47;;;2.63;;
6374;SDS011;35400;45.472;-122.822;2023-05-03T09:46:27;3.30;;;2.87;;
6374;SDS011;35400;45.472;-122.822;2023-05-03T09:48:58;3.57;;;2.67;;
6374;SDS011;35400;45.472;-122.822;2023-05-03T09:51:25;5.13;;;2.20;;
6374;SDS011;35400;45.472;-122.822;2023-05-03T09:53:54;3.03;;;2.43;;
6374;SDS011;35400;45.472;-122.822;2023-05-03T09:56:21;3.80;;;2.30;;
6374;SDS011;35400;45.472;-122.822;2023-05-03T09:58:51;5.63;;;2.37;;
6374;SDS011;35400;45.472;-122.822;2023-05-03T10:01:19;4.43;;;2.30;;
6374;SDS011;35400;45.472;-122.822;2023-05-03T10:03:50;2.30;;;2.10;;
6374;SDS011;35400;45.472;-122.822;2023-05-03T10:11:52;4.17;;;2.60;;
6374;SDS011;35400;45.472;-122.822;2023-05-03T10:14:20;3.37;;;2.50;;
6374;SDS011;35400;45.472;-122.822;2023-05-03T10:16:48;7.77;;;3.10;;
6374;SDS011;35400;45.472;-122.822;2023-05-03T10:19:26;3.63;;;2.67;;
6374;SDS011;35400;45.472;-122.822;2023-05-03T10:22:12;2.70;;;2.50;;
6374;SDS011;35400;45.472;-122.822;2023-05-03T10:28:09;2.93;;;2.57;;
6374;SDS011;35400;45.472;-122.822;2023-05-03T10:35:40;4.33;;;2.40;;
6374;SDS011;35400;45.472;-122.822;2023-05-03T10:38:13;3.70;;;2.43;;
6374;SDS011;35400;45.472;-122.822;2023-05-03T10:40:42;5.97;;;2.70;;
6374;SDS011;35400;45.472;-122.822;2023-05-03T10:43:43;5.00;;;3.03;;
6374;SDS011;35400;45.472;-122.822;2023-05-03T10:46:03;4.50;;;2.77;;
6374;SDS011;35400;45.472;-122.822;2023-05-03T10:48:32;4.13;;;2.27;;
6374;SDS011;35400;45.472;-122.822;2023-05-03T10:53:55;4.67;;;2.50;;
6374;SDS011;35400;45.472;-122.822;2023-05-03T10:56:22;6.00;;;2.90;;
6374;SDS011;35400;45.472;-122.822;2023-05-03T10:58:49;4.03;;;2.67;;
6374;SDS011;35400;45.472;-122.822;2023-05-03T11:01:20;4.33;;;2.40;;
6374;SDS011;35400;45.472;-122.822;2023-05-03T11:03:50;4.23;;;2.30;;
6374;SDS011;35400;45.472;-122.822;2023-05-03T11:06:35;2.87;;;2.30;;
6374;SDS011;35400;45.472;-122.822;2023-05-03T11:09:08;3.77;;;2.37;;
6374;SDS011;35400;45.472;-122.822;2023-05-03T11:11:39;5.60;;;3.03;;
6374;SDS011;35400;45.472;-122.822;2023-05-03T11:14:08;3.43;;;2.10;;
6374;SDS011;35400;45.472;-122.822;2023-05-03T11:16:37;5.70;;;2.73;;
6374;SDS011;35400;45.472;-122.822;2023-05-03T11:19:13;4.80;;;2.77;;
6374;SDS011;35400;45.472;-122.822;2023-05-03T11:21:40;3.30;;;2.80;;
6374;SDS011;35400;45.472;-122.822;2023-05-03T11:24:08;3.50;;;2.50;;
6374;SDS011;35400;45.472;-122.822;2023-05-03T11:26:35;3.10;;;2.37;;
6374;SDS011;35400;45.472;-122.822;2023-05-03T11:29:03;3.97;;;2.87;;
6374;SDS011;35400;45.472;-122.822;2023-05-03T11:31:30;3.37;;;2.33;;
6374;SDS011;35400;45.472;-122.822;2023-05-03T11:33:57;4.53;;;2.80;;
6374;SDS011;35400;45.472;-122.822;2023-05-03T11:36:24;3.20;;;2.90;;
6374;SDS011;35400;45.472;-122.822;2023-05-03T11:38:52;3.13;;;2.63;;
6374;SDS011;35400;45.472;-122.822;2023-05-03T11:41:19;4.97;;;2.90;;
6374;SDS011;35400;45.472;-122.822;2023-05-03T11:43:47;5.93;;;3.20;;
6374;SDS011;35400;45.472;-122.822;2023-05-03T11:46:18;2.93;;;2.57;;
6374;SDS011;35400;45.472;-122.822;2023-05-03T11:48:48;3.37;;;2.37;;
6374;SDS011;35400;45.472;-122.822;2023-05-03T11:51:19;4.00;;;2.37;;
6374;SDS011;35400;45.472;-122.822;2023-05-03T11:53:52;3.30;;;2.60;;
6374;SDS011;35400;45.472;-122.822;2023-05-03T11:56:19;2.70;;;2.50;;
6374;SDS011;35400;45.472;-122.822;2023-05-03T11:58:56;3.50;;;2.47;;
6374;SDS011;35400;45.472;-122.822;2023-05-03T12:01:25;8.83;;;5.70;;
6374;SDS011;35400;45.472;-122.822;2023-05-03T12:03:57;8.47;;;5.77;;
6374;SDS011;35400;45.472;-122.822;2023-05-03T12:06:26;9.57;;;5.07;;
6374;SDS011;35400;45.472;-122.822;2023-05-03T12:08:58;6.33;;;5.60;;
6374;SDS011;35400;45.472;-122.822;2023-05-03T12:11:27;6.77;;;6.07;;
6374;SDS011;35400;45.472;-122.822;2023-05-03T12:13:56;5.07;;;4.57;;
6374;SDS011;35400;45.472;-122.822;2023-05-03T12:16:24;6.33;;;4.60;;
6374;SDS011;35400;45.472;-122.822;2023-05-03T12:21:22;5.67;;;2.93;;
6374;SDS011;35400;45.472;-122.822;2023-05-03T12:23:51;5.10;;;3.03;;
6374;SDS011;35400;45.472;-122.822;2023-05-03T12:26:18;5.60;;;2.70;;
6374;SDS011;35400;45.472;-122.822;2023-05-03T12:28:47;3.03;;;2.50;;
6374;SDS011;35400;45.472;-122.822;2023-05-03T12:31:14;3.63;;;2.80;;
6374;SDS011;35400;45.472;-122.822;2023-05-03T12:33:42;5.40;;;2.73;;
6374;SDS011;35400;45.472;-122.822;2023-05-03T12:36:09;5.43;;;2.53;;
6374;SDS011;35400;45.472;-122.822;2023-05-03T12:38:36;7.23;;;2.70;;
6374;SDS011;35400;45.472;-122.822;2023-05-03T12:41:03;3.93;;;2.80;;
6374;SDS011;35400;45.472;-122.822;2023-05-03T12:43:30;3.67;;;2.40;;
6374;SDS011;35400;45.472;-122.822;2023-05-03T12:45:57;3.43;;;2.73;;
6374;SDS011;35400;45.472;-122.822;2023-05-03T12:48:28;7.47;;;3.10;;
6374;SDS011;35400;45.472;-122.822;2023-05-03T12:50:56;4.03;;;2.63;;
6374;SDS011;35400;45.472;-122.822;2023-05-03T12:53:23;3.57;;;2.80;;
6374;SDS011;35400;45.472;-122.822;2023-05-03T12:55:50;6.93;;;2.87;;
6374;SDS011;35400;45.472;-122.822;2023-05-03T12:58:18;5.63;;;2.70;;
6374;SDS011;35400;45.472;-122.822;2023-05-03T13:00:45;4.67;;;2.87;;
6374;SDS011;35400;45.472;-122.822;2023-05-03T13:03:12;5.80;;;3.10;;
6374;SDS011;35400;45.472;-122.822;2023-05-03T13:05:39;6.27;;;2.87;;
6374;SDS011;35400;45.472;-122.822;2023-05-03T13:08:06;5.90;;;2.70;;
6374;SDS011;35400;45.472;-122.822;2023-05-03T13:10:33;4.93;;;2.67;;
6374;SDS011;35400;45.472;-122.822;2023-05-03T13:13:00;5.43;;;3.10;;
6374;SDS011;35400;45.472;-122.822;2023-05-03T13:15:28;5.17;;;2.50;;
6374;SDS011;35400;45.472;-122.822;2023-05-03T13:17:55;4.60;;;3.37;;
6374;SDS011;35400;45.472;-122.822;2023-05-03T13:20:26;5.10;;;3.40;;
6374;SDS011;35400;45.472;-122.822;2023-05-03T13:22:53;4.83;;;2.87;;
6374;SDS011;35400;45.472;-122.822;2023-05-03T13:25:20;9.30;;;3.03;;
6374;SDS011;35400;45.472;-122.822;2023-05-03T13:27:47;3.63;;;2.67;;
6374;SDS011;35400;45.472;-122.822;2023-05-03T13:30:21;5.20;;;3.23;;
6374;SDS011;35400;45.472;-122.822;2023-05-03T13:32:48;5.90;;;3.00;;
6374;SDS011;35400;45.472;-122.822;2023-05-03T13:35:16;4.70;;;2.90;;
6374;SDS011;35400;45.472;-122.822;2023-05-03T13:37:43;3.70;;;2.73;;
6374;SDS011;35400;45.472;-122.822;2023-05-03T13:40:10;3.63;;;2.70;;
6374;SDS011;35400;45.472;-122.822;2023-05-03T13:42:39;3.93;;;2.80;;
6374;SDS011;35400;45.472;-122.822;2023-05-03T13:45:06;5.83;;;3.23;;
6374;SDS011;35400;45.472;-122.822;2023-05-03T13:47:33;5.43;;;3.10;;
6374;SDS011;35400;45.472;-122.822;2023-05-03T13:50:01;5.40;;;3.30;;
6374;SDS011;35400;45.472;-122.822;2023-05-03T13:52:28;6.57;;;3.23;;
6374;SDS011;35400;45.472;-122.822;2023-05-03T13:54:55;6.60;;;3.33;;
6374;SDS011;35400;45.472;-122.822;2023-05-03T13:57:22;5.37;;;2.90;;
6374;SDS011;35400;45.472;-122.822;2023-05-03T13:59:49;3.40;;;2.80;;
6374;SDS011;35400;45.472;-122.822;2023-05-03T14:02:16;6.27;;;3.47;;
6374;SDS011;35400;45.472;-122.822;2023-05-03T14:04:43;4.27;;;3.43;;
6374;SDS011;35400;45.472;-122.822;2023-05-03T14:07:11;6.03;;;3.53;;
6374;SDS011;35400;45.472;-122.822;2023-05-03T14:09:37;3.80;;;3.10;;
6374;SDS011;35400;45.472;-122.822;2023-05-03T14:12:05;5.33;;;3.10;;
6374;SDS011;35400;45.472;-122.822;2023-05-03T14:14:32;6.67;;;3.30;;
6374;SDS011;35400;45.472;-122.822;2023-05-03T14:17:01;5.07;;;3.23;;
6374;SDS011;35400;45.472;-122.822;2023-05-03T14:19:28;6.33;;;3.23;;
6374;SDS011;35400;45.472;-122.822;2023-05-03T14:21:55;7.13;;;3.37;;
6374;SDS011;35400;45.472;-122.822;2023-05-03T14:24:24;6.60;;;3.07;;
6374;SDS011;35400;45.472;-122.822;2023-05-03T14:26:51;3.60;;;3.03;;
6374;SDS011;35400;45.472;-122.822;2023-05-03T14:29:18;4.60;;;3.20;;
6374;SDS011;35400;45.472;-122.822;2023-05-03T14:31:45;5.53;;;3.40;;
6374;SDS011;35400;45.472;-122.822;2023-05-03T14:34:13;6.67;;;3.67;;
6374;SDS011;35400;45.472;-122.822;2023-05-03T14:36:41;4.23;;;3.20;;
6374;SDS011;35400;45.472;-122.822;2023-05-03T14:39:08;5.13;;;3.43;;
6374;SDS011;35400;45.472;-122.822;2023-05-03T14:41:39;5.67;;;3.40;;
6374;SDS011;35400;45.472;-122.822;2023-05-03T14:44:07;4.40;;;3.90;;
6374;SDS011;35400;45.472;-122.822;2023-05-03T14:46:34;7.07;;;3.67;;
6374;SDS011;35400;45.472;-122.822;2023-05-03T14:49:00;6.37;;;3.03;;
6374;SDS011;35400;45.472;-122.822;2023-05-03T14:51:27;4.23;;;2.93;;
6374;SDS011;35400;45.472;-122.822;2023-05-03T14:53:54;5.47;;;3.00;;
6374;SDS011;35400;45.472;-122.822;2023-05-03T14:56:21;3.53;;;2.90;;